• Join FlightAware (Why Join?)
  • Login
  • US Flag 
01:45PM EDT


 

Airport Tracker/Info


-or-


 

Live Flight TrackerFlight Track Log ✈ AWE1034 ✈ 02-May-2012 ✈ KCLT - TJSJ / SJU

Flight Track Log - Related Links

Times and Time Zones

All times are in EDT time to prevent confusion due to time zone crossing. See the AWE1034 flight status page for this flight to view local times or setup timezone preferences in your user account.

Time Position Orientation Groundspeed Altitude Reporting Facility
EDT Latitude Longitude Course Direction KTS MPH feet Rate Location/Type
12:04PM 35.1872 -80.9291 177° South  Level FlightAware Approximate
12:05PM 35.1258 -80.9253 172° South 224 258 4,100  Level Atlanta Center
12:06PM 35.0631 -80.9150 177° South 275 316 6,100 2,700 Climbing Atlanta Center
12:07PM 34.9858 -80.9103 178° South 282 325 9,200 3,000 Climbing Atlanta Center
12:09PM 34.8075 -80.9028 180° South 327 376 15,400 2,820 Climbing Jacksonville Center
12:10PM 34.7075 -80.9025 176° South 354 407 18,000 2,760 Climbing Jacksonville Center
12:11PM 34.5842 -80.8928 175° South 380 437 21,000 2,820 Climbing Jacksonville Center
12:12PM 34.4672 -80.8803 170° South 416 479 23,700 2,520 Climbing Jacksonville Center
12:13PM 34.3458 -80.8556 173° South 430 495 26,100 2,220 Climbing Jacksonville Center
12:14PM 34.2244 -80.8383 174° South 441 507 28,200 2,100 Climbing Jacksonville Center
12:15PM 34.0906 -80.8214 175° South 462 532 30,400 2,400 Climbing Jacksonville Center
12:16PM 33.9569 -80.8069 156° South 477 549 33,000 2,400 Climbing Jacksonville Center
12:17PM 33.8411 -80.7447 147° Southeast 463 533 35,200 1,980 Climbing Jacksonville Center
12:18PM 33.7311 -80.6600 147° Southeast 455 524 37,000 1,800 Climbing Jacksonville Center
12:19PM 33.6275 -80.5803 148° Southeast 455 524 38,800 1,440 Climbing Jacksonville Center
12:20PM 33.5194 -80.5008 148° Southeast 455 524 39,900 960 Climbing Jacksonville Center
12:21PM 33.4136 -80.4217 148° Southeast 455 524 40,800 540 Climbing Jacksonville Center
12:22PM 33.3056 -80.3400 148° Southeast 455 524 41,000 60 Climbing Jacksonville Center
12:23PM 33.1953 -80.2589 149° Southeast 455 524 41,000 -60 Level Jacksonville Center
12:24PM 33.0958 -80.1875 145° Southeast 464 534 40,900  Descending Jacksonville Center
12:25PM 32.9917 -80.1014 117° Southeast 464 534 41,000  Climbing Jacksonville Center
12:26PM 32.9344 -79.9694 110° East 381 438 41,000  Level Jacksonville Center
12:27PM 32.8914 -79.8275 110° East 425 489 41,000  Level Jacksonville Center
12:28PM 32.8481 -79.6856 110° East 437 503 41,000  Level Jacksonville Center
12:29PM 32.8050 -79.5461 110° East 445 512 41,000  Level Jacksonville Center
12:30PM 32.7614 -79.4047 110° East 450 518 41,000  Level Jacksonville Center
12:31PM 32.7178 -79.2631 111° Southeast 450 518 41,000  Level Jacksonville Center
12:32PM 32.6719 -79.1194 112° Southeast 457 526 41,000  Level Jacksonville Center
12:33PM 32.6258 -78.9808 110° East 496 571 41,000  Level Jacksonville Center
12:34PM 32.5817 -78.8397 113° Southeast 474 545 41,000  Level Jacksonville Center
12:35PM 32.5314 -78.7014 110° East 461 531 41,000  Level Jacksonville Center
12:36PM 32.4867 -78.5558 114° Southeast 461 531 41,000  Level Jacksonville Center
12:37PM 32.4314 -78.4058 109° East 461 531 41,000  Level Jacksonville Center
12:38PM 32.3886 -78.2628 130° Southeast 456 525 41,000  Level Jacksonville Center
12:39PM 32.3072 -78.1489 131° Southeast 444 511 41,000  Level Jacksonville Center
12:40PM 32.2258 -78.0378 135° Southeast 449 517 41,000  Level Jacksonville Center
12:41PM 32.1361 -77.9322 136° Southeast 449 517 41,000  Level Jacksonville Center
12:42PM 32.0486 -77.8317 133° Southeast 444 511 41,000  Level Jacksonville Center
12:43PM 31.9631 -77.7236 135° Southeast 444 511 41,000  Level Jacksonville Center
12:44PM 31.8750 -77.6186 135° Southeast 444 511 41,000  Level Jacksonville Center
12:45PM 31.7872 -77.5161 136° Southeast 444 511 41,000  Level Jacksonville Center
12:46PM 31.7019 -77.4208 133° Southeast 430 495 41,000  Level Jacksonville Center
12:47PM 31.6222 -77.3208 135° Southeast 447 514 41,000  Level Jacksonville Center
12:48PM 31.5364 -77.2186 134° Southeast 452 520 41,000  Level Jacksonville Center
12:49PM 31.4503 -77.1144 134° Southeast 447 514 41,000  Level Jacksonville Center
12:50PM 31.3664 -77.0125 147° Southeast 441 507 41,000  Level Jacksonville Center
12:52PM 31.3500 -77.0000 140° Southeast 448 516 41,000  Level New York Oceanic (ODAPS)
01:23PM 28.2500 -74.1167 149° Southeast 450 518 41,000  Level New York Oceanic (ODAPS)
01:45PM 25.7997 -72.4969 151° Southeast 461 531 41,000  Level Miami Center
01:46PM 25.6911 -72.4294 149° Southeast 456 525 41,000  Level Miami Center
01:47PM 25.5717 -72.3511 151° Southeast 466 536 41,000  Level Miami Center
01:48PM 25.4547 -72.2794 149° Southeast 466 536 41,000  Level Miami Center
01:49PM 25.3353 -72.2014 151° Southeast 479 551 41,000  Level Miami Center
01:50PM 25.2203 -72.1300 149° Southeast 484 557 41,000  Level Miami Center
01:51PM 25.1114 -72.0586 150° Southeast 476 548 41,000  Level Miami Center
01:52PM 24.9942 -71.9831 139° Southeast 476 548 41,000  Level Miami Center
01:53PM 24.8947 -71.8861 139° Southeast 502 578 41,000  Level Miami Center
01:54PM 24.7933 -71.7875 139° Southeast 509 586 41,000  Level Miami Center
01:55PM 24.6919 -71.6911 141° Southeast 495 570 41,000  Level Miami Center
01:56PM 24.5861 -71.5972 136° Southeast 489 563 41,000  Level Miami Center
01:57PM 24.4819 -71.4875 141° Southeast 499 574 41,000  Level Miami Center
01:58PM 24.3786 -71.3964 139° Southeast 494 568 41,000  Level Miami Center
01:59PM 24.2744 -71.2961 139° Southeast 494 568 41,000  Level Miami Center
02:00PM 24.1683 -71.1939 139° Southeast 499 574 41,000  Level Miami Center
02:01PM 24.0667 -71.0964 139° Southeast 499 574 41,000  Level Miami Center
02:02PM 23.9625 -70.9989 139° Southeast 489 563 41,000  Level Miami Center
02:04PM 23.7564 -70.8019 141° Southeast 494 568 41,000  Level Miami Center
02:05PM 23.6525 -70.7097 138° Southeast 489 563 41,000  Level Miami Center
02:06PM 23.5525 -70.6125 139° Southeast 489 563 41,000  Level Miami Center
02:07PM 23.4503 -70.5158 141° Southeast 483 556 41,000  Level Miami Center
02:08PM 23.3461 -70.4239 138° Southeast 488 562 41,000  Level Miami Center
02:09PM 23.2439 -70.3231 141° Southeast 488 562 41,000  Level Miami Center
02:10PM 23.1397 -70.2311 139° Southeast 488 562 41,000  Level Miami Center
02:11PM 23.0394 -70.1372 139° Southeast 488 562 41,000  Level Miami Center
02:12PM 22.9350 -70.0392 141° Southeast 483 556 41,000  Level Miami Center
02:13PM 22.8328 -69.9500 139° Southeast 483 556 41,000  Level Miami Center
02:14PM 22.7281 -69.8500 140° Southeast 489 563 41,000  Level Miami Center
02:15PM 22.6147 -69.7458 139° Southeast 489 563 41,000  Level Miami Center
02:16PM 22.5122 -69.6483 140° Southeast 489 563 41,000  Level Miami Center
02:17PM 22.4053 -69.5511 139° Southeast 489 563 41,000  Level Miami Center
02:18PM 22.2983 -69.4517 139° Southeast 496 571 41,000  Level Miami Center
02:19PM 22.1981 -69.3589 140° Southeast 485 558 41,000  Level Miami Center
02:20PM 22.0931 -69.2642 139° Southeast 490 564 41,000  Level Miami Center
02:22PM 21.8833 -69.0708 140° Southeast 502 578 41,000  Level Miami Center
02:23PM 21.7806 -68.9764 140° Southeast 496 571 41,000  Level Miami Center
02:24PM 21.6756 -68.8803 140° Southeast 496 571 41,000  Level Miami Center
02:25PM 21.5683 -68.7842 140° Southeast 496 571 41,000  Level Miami Center
02:26PM 21.4614 -68.6883 141° Southeast 504 580 41,000  Level Miami Center
02:27PM 21.3522 -68.5947 139° Southeast 504 580 41,000  Level Miami Center
02:28PM 21.2514 -68.5011 140° Southeast 497 572 41,000  Level Miami Center
02:29PM 21.1439 -68.4056 141° Southeast 497 572 41,000  Level Miami Center
02:30PM 21.0369 -68.3125 137° Southeast 497 572 41,000  Level Miami Center
02:31PM 20.9378 -68.2144 140° Southeast 497 572 41,000  Level Miami Center
02:32PM 20.8347 -68.1214 154° Southeast 497 572 41,000  Level Miami Center
02:33PM 20.7189 -68.0603 165° South 466 536 41,000  Level Miami Center
02:34PM 20.5961 -68.0242 165° South 466 536 41,000 -300 Level Miami Center
02:35PM 20.4711 -67.9878 165° South 466 536 40,500 -1,020 Descending Miami Center
02:36PM 20.3400 -67.9500 165° South 474 545 39,000 -1,620 Descending Miami Center
02:37PM 20.2089 -67.9122 168° South 483 556 37,300 960 Descending Miami Center
02:38PM 20.0783 -67.8831 162° South 483 556 41,000 -1,320 Climbing Miami Center
02:38PM 19.9833 -67.8500 146° Southeast 480 552 35,000 -3,360 Descending San Juan Center
02:39PM 19.8667 -67.7667 132° Southeast 490 564 35,000  Level San Juan Center
02:40PM 19.7667 -67.6500 137° Southeast 490 564 35,000 -420 Level San Juan Center
02:41PM 19.6667 -67.5500 137° Southeast 500 575 34,200 -1,020 Descending San Juan Center
02:42PM 19.5667 -67.4500 137° Southeast 500 575 33,000 -1,140 Descending San Juan Center
02:43PM 19.4667 -67.3500 137° Southeast 500 575 31,900 -1,980 Descending San Juan Center
02:44PM 19.3667 -67.2500 132° Southeast 500 575 29,100 -3,060 Descending San Juan Center
02:45PM 19.2667 -67.1333 142° Southeast 500 575 25,800 -3,480 Descending San Juan Center
02:46PM 19.1667 -67.0500 132° Southeast 480 552 22,200 -3,300 Descending San Juan Center
02:47PM 19.0667 -66.9333 131° Southeast 470 541 19,200 -2,700 Descending San Juan Center
02:48PM 18.9833 -66.8333 143° Southeast 430 495 16,800 -2,340 Descending San Juan Center
02:49PM 18.9000 -66.7667 130° Southeast 410 472 14,600 -2,760 Descending San Juan Center
02:50PM 18.8333 -66.6833 137° Southeast 350 403 11,300 -2,520 Descending San Juan Center
02:51PM 18.7667 -66.6167 128° Southeast 290 334 9,600 -2,160 Descending San Juan Center
02:52PM 18.7167 -66.5500 118° Southeast 270 311 7,000 -2,100 Descending San Juan Center
02:53PM 18.6833 -66.4833 105° East 250 288 5,400 -1,380 Descending San Juan Center
02:54PM 18.6667 -66.4167 125° Southeast 240 276 4,300 -1,200 Descending San Juan Center
02:55PM 18.6333 -66.3667 118° Southeast 230 265 3,000 -1,080 Descending San Juan Center
02:56PM 18.6000 -66.3000 125° Southeast 230 265 2,200 -420 Descending San Juan Center
02:57PM 18.5667 -66.2500 125° Southeast 210 242 2,200  Level San Juan Center
02:58PM 18.5333 -66.2000 162° South 210 242 2,200  Level San Juan Center
02:59PM 18.4833 -66.1833 155° Southeast 190 219 2,200 -60 Level San Juan Center
03:00PM 18.4500 -66.1667 155° Southeast 180 207 2,100 -120 Descending San Juan Center